Minerva Zenia — SYNB — position and weather

sailwx.info

Track history (hours):
 
Tides and Currents Weather Stations Pressure Air Temp Water Temp Dewpoint Dewpoint Depression Visibility Wind Speed Wind Dir Waves Ship Positions

Minerva Zenia

Last reported at 2014-Oct-24 04:29 UTC. Time now 2014-Oct-25 00:04 UTC.
Position N 59°36' E 023°08'.

Length 248 m; draft 14.5 m.

Type: Ship (hazmat cat C). MMSI: 240014000.

Date/timePositionNaut miles runAvg speedWind from/ knotsBaromVisibWave heightAir tempDewpointWater temp
2014-Oct-24 04:29N 59°36' E 023°08'1212.3
2014-Oct-24 03:33N 59°39' E 023°30'1212.3
2014-Oct-24 02:34N 59°43' E 023°53'7412.3
2014-Oct-23 20:30N 59°59' E 026°18'1111.9
2014-Oct-23 19:33N 60°01' E 026°40'1411.9
2014-Oct-23 18:23N 60°01' E 027°08'1112.3
2014-Oct-23 17:30N 60°06' E 027°27'  
2014-Oct-17 04:31N 59°59' E 026°34'9 9.5
2014-Oct-17 03:33N 59°56' E 026°17'62 9.8
2014-Oct-16 21:12N 59°42' E 024°16'8 9.7
2014-Oct-16 20:20N 59°39' E 024°00'19 9.5
2014-Oct-16 18:19N 59°33' E 023°25'345 7.9
2014-Oct-14 22:33N 55°37' E 015°34'6 5.8
2014-Oct-14 21:33N 55°35' E 015°24'6 6.1
2014-Oct-14 20:33N 55°33' E 015°15'6 6.2
2014-Oct-14 19:33N 55°30' E 015°05'7 6.3
2014-Oct-14 18:30N 55°27' E 014°54'6 6.3
2014-Oct-14 17:31N 55°25' E 014°44'6 6.1
2014-Oct-14 16:33N 55°21' E 014°36'6 6.3
2014-Oct-14 15:33N 55°16' E 014°29'6 6.2
2014-Oct-14 14:32N 55°11' E 014°23'84 9.4
2014-Oct-14 05:33N 54°30' E 012°15'1111.3
2014-Oct-14 04:33N 54°25' E 011°57'  
Track history (hours):
 
Tides and Currents Weather Stations Pressure Air Temp Water Temp Dewpoint Dewpoint Depression Visibility Wind Speed Wind Dir Waves Ship Positions

Minerva Zenia

Last reported at 2014-Oct-24 04:29 UTC. Time now 2014-Oct-25 00:04 UTC.
Position N 59°36' E 023°08'.

Length 248 m; draft 14.5 m.

Type: Ship (hazmat cat C). MMSI: 240014000.

Date/timePositionNaut miles runAvg speedWind from/ knotsBaromVisibWave heightAir tempDewpointWater temp
2014-Oct-24 04:29N 59°36' E 023°08'1212.3
2014-Oct-24 03:33N 59°39' E 023°30'1212.3
2014-Oct-24 02:34N 59°43' E 023°53'7412.3
2014-Oct-23 20:30N 59°59' E 026°18'1111.9
2014-Oct-23 19:33N 60°01' E 026°40'1411.9
2014-Oct-23 18:23N 60°01' E 027°08'1112.3
2014-Oct-23 17:30N 60°06' E 027°27'  
2014-Oct-17 04:31N 59°59' E 026°34'9 9.5
2014-Oct-17 03:33N 59°56' E 026°17'62 9.8
2014-Oct-16 21:12N 59°42' E 024°16'8 9.7
2014-Oct-16 20:20N 59°39' E 024°00'19 9.5
2014-Oct-16 18:19N 59°33' E 023°25'345 7.9
2014-Oct-14 22:33N 55°37' E 015°34'6 5.8
2014-Oct-14 21:33N 55°35' E 015°24'6 6.1
2014-Oct-14 20:33N 55°33' E 015°15'6 6.2
2014-Oct-14 19:33N 55°30' E 015°05'7 6.3
2014-Oct-14 18:30N 55°27' E 014°54'6 6.3
2014-Oct-14 17:31N 55°25' E 014°44'6 6.1
2014-Oct-14 16:33N 55°21' E 014°36'6 6.3
2014-Oct-14 15:33N 55°16' E 014°29'6 6.2
2014-Oct-14 14:32N 55°11' E 014°23'84 9.4
2014-Oct-14 05:33N 54°30' E 012°15'1111.3
2014-Oct-14 04:33N 54°25' E 011°57'  

Dump ship's entire track history